Time;durP1;ratioP1;P1;durP2;ratioP2;P2;SDS_P1;SDS_P2;PMS_P1;PMS_P2;Temp;Humidity;BMP_temperature;BMP_pressure;BME280_temperature;BME280_humidity;BME280_pressure;Samples;Min_cycle;Max_cycle;Signal;HPM_P1;HPM_P2
2022/03/02 19:57:42;;;;;;;;;52.25;43.00;;;;;9.93;100.00;101341.56;5144671;27;45399;-75
2022/03/02 20:00:08;;;;;;;;;65.75;50.25;;;;;9.79;100.00;101288.03;5144738;27;45164;-75
2022/03/02 20:02:34;;;;;;;;;59.75;44.25;;;;;9.58;100.00;101230.38;5128640;27;45302;-78
2022/03/02 20:05:01;;;;;;;;;58.75;47.50;;;;;10.31;100.00;101343.09;5134372;27;45266;-81
2022/03/02 20:07:30;;;;;;;;;53.50;42.50;;;;;9.97;100.00;101267.97;5145876;27;45230;-80
2022/03/02 20:09:56;;;;;;;;;55.00;42.75;;;;;10.06;100.00;101264.75;5145074;27;45188;-77
2022/03/02 20:12:21;;;;;;;;;56.75;45.75;;;;;9.55;100.00;101182.56;5137899;27;45264;-78
2022/03/02 20:14:46;;;;;;;;;56.75;44.75;;;;;10.47;100.00;101306.88;5139798;27;45487;-78
2022/03/02 20:17:12;;;;;;;;;62.50;47.25;;;;;10.74;100.00;101343.31;5106912;27;46167;-77
2022/03/02 20:19:38;;;;;;;;;58.75;47.25;;;;;10.82;100.00;101337.44;5107349;27;45285;-77
2022/03/02 20:22:04;;;;;;;;;64.00;50.75;;;;;10.46;100.00;101272.50;5128405;27;45160;-77
2022/03/02 20:24:34;;;;;;;;;58.50;47.00;;;;;10.95;100.00;101341.22;5127935;27;45094;-77
2022/03/02 20:26:59;;;;;;;;;64.75;48.75;;;;;10.70;100.00;101298.25;5126505;27;45221;-78
2022/03/02 20:29:25;;;;;;;;;66.00;50.25;;;;;11.01;100.00;101339.97;5112491;27;45144;-78
2022/03/02 20:31:51;;;;;;;;;64.50;50.50;;;;;10.07;100.00;101167.84;5127147;27;45125;-78
2022/03/02 20:34:20;;;;;;;;;60.50;49.25;;;;;10.58;100.00;101258.19;5141538;27;45241;-82
2022/03/02 20:36:46;;;;;;;;;65.25;50.25;;;;;11.17;100.00;101344.41;5135498;27;45010;-76
2022/03/02 20:39:11;;;;;;;;;64.75;49.25;;;;;11.03;100.00;101318.97;5147309;27;44917;-77
2022/03/02 20:41:37;;;;;;;;;69.50;48.50;;;;;10.48;100.00;101208.91;5128059;27;45120;-81
2022/03/02 20:44:03;;;;;;;;;64.00;49.75;;;;;10.42;100.00;101192.09;5145953;27;45666;-76
2022/03/02 20:46:29;;;;;;;;;60.75;50.25;;;;;11.10;100.00;101301.28;5147087;27;45435;-77
2022/03/02 20:48:54;;;;;;;;;65.75;50.50;;;;;10.37;100.00;101176.94;5145522;27;45143;-76
2022/03/02 20:51:19;;;;;;;;;65.25;52.00;;;;;11.35;100.00;101339.69;5145590;27;45139;-76
2022/03/02 20:53:45;;;;;;;;;62.50;49.00;;;;;11.37;100.00;101339.59;5120904;27;45277;-78
2022/03/02 20:56:14;;;;;;;;;61.00;48.75;;;;;11.38;100.00;101331.31;5138446;27;45675;-83
2022/03/02 20:58:41;;;;;;;;;64.50;49.00;;;;;11.40;100.00;101342.13;5119994;27;45237;-77
2022/03/02 21:01:11;;;;;;;;;60.75;47.25;;;;;11.00;100.00;101260.19;5133623;27;45241;-82
2022/03/02 21:03:36;;;;;;;;;55.00;45.25;;;;;10.86;100.00;101251.97;5128229;27;45112;-76
2022/03/02 21:06:09;;;;;;;;;64.00;49.50;;;;;11.10;100.00;101275.00;5139230;27;45747;-76
2022/03/02 21:08:35;;;;;;;;;63.50;48.25;;;;;11.46;100.00;101330.88;5125840;27;45095;-75
2022/03/02 21:11:02;;;;;;;;;65.00;51.25;;;;;11.46;100.00;101330.88;5122036;27;45230;-78
2022/03/02 21:13:28;;;;;;;;;60.50;46.75;;;;;11.47;100.00;101326.28;5125369;27;45145;-78
2022/03/02 21:15:54;;;;;;;;;63.25;48.75;;;;;11.47;100.00;101329.03;5097511;27;47622;-79
2022/03/02 21:18:20;;;;;;;;;58.00;48.50;;;;;11.47;100.00;101332.63;5093024;27;45274;-79
2022/03/02 21:20:46;;;;;;;;;67.25;51.25;;;;;11.25;100.00;101300.38;5107934;27;45120;-79
2022/03/02 21:23:15;;;;;;;;;62.50;50.00;;;;;9.41;100.00;100983.47;5114179;27;45244;-78
2022/03/02 21:25:41;;;;;;;;;62.75;49.00;;;;;11.45;100.00;101326.38;5131350;27;45502;-78
2022/03/02 21:28:07;;;;;;;;;63.50;51.00;;;;;11.13;100.00;101276.63;5097841;27;45227;-80
2022/03/02 21:30:32;;;;;;;;;64.25;48.25;;;;;10.25;100.00;101126.03;5102319;27;45214;-80
2022/03/02 21:32:58;;;;;;;;;65.25;49.00;;;;;11.04;100.00;101263.59;5132149;27;45462;-80
2022/03/02 21:35:24;;;;;;;;;68.00;51.25;;;;;11.42;100.00;101335.63;5095506;27;46697;-81
2022/03/02 21:37:49;;;;;;;;;62.00;49.00;;;;;9.59;100.00;101017.69;5111078;27;45509;-79
2022/03/02 21:40:15;;;;;;;;;64.25;50.00;;;;;9.73;100.00;101041.28;5119664;27;45151;-78
2022/03/02 21:42:42;;;;;;;;;60.75;48.00;;;;;11.09;100.00;101286.81;5113073;27;45100;-78
2022/03/02 21:45:09;;;;;;;;;68.75;50.00;;;;;11.36;100.00;101321.50;5100741;27;47438;-76
2022/03/02 21:47:35;;;;;;;;;64.75;52.00;;;;;10.91;100.00;101241.69;5114035;27;45535;-78
2022/03/02 21:50:00;;;;;;;;;64.00;51.00;;;;;11.33;100.00;101311.69;5120935;27;45154;-77
2022/03/02 21:52:26;;;;;;;;;56.75;47.25;;;;;11.32;100.00;101311.78;5115322;27;45186;-78
2022/03/02 21:54:55;;;;;;;;;59.00;46.50;;;;;10.38;100.00;101156.06;5130713;27;46346;-77
2022/03/02 21:57:21;;;;;;;;;67.00;52.25;;;;;11.08;100.00;101273.31;5129656;27;45141;-76
2022/03/02 21:59:47;;;;;;;;;68.25;50.75;;;;;10.10;100.00;101106.06;5126354;27;45335;-77
2022/03/02 22:02:12;;;;;;;;;69.25;52.25;;;;;11.27;100.00;101303.88;5090783;27;45237;-78
2022/03/02 22:04:38;;;;;;;;;63.00;49.75;;;;;11.25;100.00;101300.38;5109731;27;46144;-77
2022/03/02 22:07:03;;;;;;;;;63.75;51.00;;;;;9.38;100.00;100989.06;5109849;27;44980;-77
2022/03/02 22:09:29;;;;;;;;;70.00;55.00;;;;;11.23;100.00;101307.75;5116404;27;45195;-77
2022/03/02 22:11:54;;;;;;;;;68.25;52.50;;;;;10.02;100.00;101102.91;5112965;27;45214;-76
2022/03/02 22:14:19;;;;;;;;;71.25;56.50;;;;;10.80;100.00;101225.16;5117826;27;45136;-76
2022/03/02 22:16:45;;;;;;;;;69.25;52.00;;;;;10.34;100.00;101143.63;5113728;27;45162;-76
2022/03/02 22:19:10;;;;;;;;;74.00;57.50;;;;;10.04;100.00;101100.13;5108492;27;45117;-77
2022/03/02 22:21:36;;;;;;;;;75.00;56.50;;;;;10.49;100.00;101164.47;5117496;27;47201;-77
2022/03/02 22:24:01;;;;;;;;;67.50;52.00;;;;;10.91;100.00;101252.59;5117003;27;45711;-80
2022/03/02 22:26:27;;;;;;;;;68.25;52.50;;;;;10.98;100.00;101269.41;5109499;27;45183;-79
2022/03/02 22:28:52;;;;;;;;;73.25;55.75;;;;;10.51;100.00;101176.13;5110708;27;45214;-83
2022/03/02 22:31:17;;;;;;;;;71.75;55.25;;;;;11.08;100.00;101287.78;5111289;27;45188;-78
2022/03/02 22:33:43;;;;;;;;;69.25;53.25;;;;;11.18;100.00;101296.28;5120317;27;45457;-80
2022/03/02 22:36:08;;;;;;;;;67.75;54.25;;;;;11.18;100.00;101291.72;5116465;27;45303;-79
2022/03/02 22:38:34;;;;;;;;;66.00;52.00;;;;;9.57;100.00;101023.19;5117412;27;45265;-80
2022/03/02 22:40:59;;;;;;;;;69.00;53.75;;;;;10.96;100.00;101260.47;5110341;27;45214;-78
2022/03/02 22:43:24;;;;;;;;;69.00;53.50;;;;;10.80;100.00;101227.88;5109581;27;45134;-79
2022/03/02 22:45:50;;;;;;;;;68.50;55.00;;;;;10.72;100.00;101222.88;5125188;27;45193;-79
2022/03/02 22:48:15;;;;;;;;;70.25;53.00;;;;;10.46;100.00;101163.78;5129440;27;45195;-80
2022/03/02 22:50:41;;;;;;;;;68.25;54.75;;;;;11.22;100.00;101299.69;5127838;27;44939;-79
2022/03/02 22:53:06;;;;;;;;;67.00;54.50;;;;;10.85;100.00;101225.75;5118210;27;45540;-78
2022/03/02 22:55:32;;;;;;;;;71.25;54.00;;;;;10.86;100.00;101227.50;5113338;27;45120;-79
2022/03/02 22:57:59;;;;;;;;;71.75;55.25;;;;;11.22;100.00;101286.09;5099501;27;45172;-78
2022/03/02 23:00:27;;;;;;;;;68.25;54.25;;;;;11.20;100.00;101277.13;5092415;27;45090;-78
2022/03/02 23:02:53;;;;;;;;;67.50;51.75;;;;;11.18;100.00;101279.94;5087252;27;45853;-79
2022/03/02 23:16:15;;;;;;;;;65.75;52.00;;;;;11.13;100.00;101273.91;5087299;27;45323;-78
2022/03/02 23:18:41;;;;;;;;;69.25;53.75;;;;;10.45;100.00;101153.88;5089130;27;45239;-79
2022/03/02 23:21:07;;;;;;;;;71.00;55.75;;;;;10.89;100.00;101235.47;5088708;27;45297;-78
2022/03/02 23:23:32;;;;;;;;;70.50;52.75;;;;;11.09;100.00;101284.09;5087836;27;45620;-79
2022/03/02 23:25:58;;;;;;;;;68.25;53.25;;;;;9.76;100.00;101047.41;5088390;27;45127;-79
2022/03/02 23:28:23;;;;;;;;;71.25;55.00;;;;;10.79;100.00;101217.94;5088666;27;45235;-80
2022/03/02 23:30:49;;;;;;;;;67.25;54.00;;;;;10.44;100.00;101155.72;5088557;27;45101;-79
2022/03/02 23:33:14;;;;;;;;;67.00;50.75;;;;;10.69;100.00;101206.75;5102281;27;45338;-78
2022/03/02 23:35:40;;;;;;;;;66.25;53.00;;;;;11.03;100.00;101261.84;5091844;27;45284;-79
2022/03/02 23:38:06;;;;;;;;;69.75;53.00;;;;;10.85;100.00;101233.91;5094558;27;45379;-80
2022/03/02 23:40:32;;;;;;;;;71.75;54.25;;;;;9.75;100.00;101059.25;5089805;28;45147;-80
2022/03/02 23:42:58;;;;;;;;;68.50;54.00;;;;;10.98;100.00;101256.66;5088109;27;45087;-79
2022/03/02 23:45:23;;;;;;;;;66.50;52.00;;;;;10.96;100.00;101258.63;5088545;27;45120;-80
2022/03/02 23:47:49;;;;;;;;;70.50;53.50;;;;;10.89;100.00;101246.34;5070930;28;45641;-79
2022/03/02 23:50:14;;;;;;;;;69.50;54.50;;;;;10.43;100.00;101167.53;5088440;27;45076;-80
2022/03/02 23:52:40;;;;;;;;;73.75;56.25;;;;;10.58;100.00;101201.94;5102199;27;45528;-78
2022/03/02 23:55:06;;;;;;;;;70.75;54.75;;;;;10.73;100.00;101221.91;5087907;27;45081;-79
2022/03/02 23:57:31;;;;;;;;;73.00;56.25;;;;;10.91;100.00;101258.91;5092536;27;45269;-78
2022/03/02 23:59:57;;;;;;;;;67.25;54.75;;;;;10.65;100.00;101213.38;5100635;27;45530;-80
